Time;durP1;ratioP1;P1;durP2;ratioP2;P2;SDS_P1;SDS_P2;PMS_P1;PMS_P2;Temp;Humidity;BMP_temperature;BMP_pressure;BME280_temperature;BME280_humidity;BME280_pressure;Samples;Min_cycle;Max_cycle;Signal;HPM_P1;HPM_P2
2022/06/04 00:00:22;;;;;;;;;;;;;;;;;;4995237;28;20017;-22
2022/06/04 00:02:48;;;;;;;;;;;;;;;;;;4995039;28;19973;-22
2022/06/04 00:05:14;;;;;;;;;;;;;;;;;;4995185;28;19918;-22
2022/06/04 00:07:40;;;;;;;;;;;;;;;;;;4995203;28;19917;-23
2022/06/04 00:15:35;;;;;;;;;;;;;;;;;;4995433;28;19925;-22
2022/06/04 00:18:01;;;;;;;;;;;;;;;;;;4995975;28;19910;-22
2022/06/04 00:20:27;;;;;;;;;;;;;;;;;;4998797;28;19913;-22
2022/06/04 00:22:53;;;;;;;;;;;;;;;;;;4998722;28;19910;-22
2022/06/04 00:25:19;;;;;;;;;;;;;;;;;;4999041;28;20262;-22
2022/06/04 00:27:45;;;;;;;;;;;;;;;;;;4998662;28;20368;-22
2022/06/04 00:30:11;;;;;;;;;;;;;;;;;;4998966;28;19910;-22
2022/06/04 00:32:37;;;;;;;;;;;;;;;;;;4998226;28;20396;-22
2022/06/04 00:35:03;;;;;;;;;;;;;;;;;;4998815;28;19914;-22
2022/06/04 00:37:29;;;;;;;;;;;;;;;;;;4998864;28;19940;-22
2022/06/04 00:39:55;;;;;;;;;;;;;;;;;;4998422;28;19953;-23
2022/06/04 00:42:21;;;;;;;;;;;;;;;;;;4998091;28;20304;-22
2022/06/04 00:44:47;;;;;;;;;;;;;;;;;;4998110;28;19968;-23
2022/06/04 00:47:13;;;;;;;;;;;;;;;;;;4998624;28;19948;-22
2022/06/04 00:49:39;;;;;;;;;;;;;;;;;;4998004;28;19945;-23
2022/06/04 00:52:05;;;;;;;;;;;;;;;;;;4998074;28;19917;-23
2022/06/04 00:54:31;;;;;;;;;;;;;;;;;;4997911;28;20332;-23
2022/06/04 00:56:57;;;;;;;;;;;;;;;;;;4998150;28;20257;-22
2022/06/04 00:59:24;;;;;;;;;;;;;;;;;;4998417;28;19910;-22
2022/06/04 01:01:50;;;;;;;;;;;;;;;;;;4997721;28;19920;-22
2022/06/04 01:04:47;;;;;;;;;;;;;;;;;;4997511;28;19924;-22
2022/06/04 01:07:02;;;;;;;;;;;;;;;;;;4997610;28;19924;-22
2022/06/04 01:09:28;;;;;;;;;;;;;;;;;;4998210;28;19941;-22
2022/06/04 01:12:10;;;;;;;;;;;;;;;;;;4997495;28;19984;-22
2022/06/04 01:14:36;;;;;;;;;;;;;;;;;;4997917;28;19914;-22
2022/06/04 01:17:02;;;;;;;;;;;;;;;;;;4997566;28;19917;-22
2022/06/04 01:19:28;;;;;;;;;;;;;;;;;;4997468;28;20328;-22
2022/06/04 01:21:54;;;;;;;;;;;;;;;;;;4997679;28;19940;-22
2022/06/04 01:24:20;;;;;;;;;;;;;;;;;;4997402;28;19925;-22
2022/06/04 01:26:46;;;;;;;;;;;;;;;;;;4997358;28;19906;-22
2022/06/04 01:29:12;;;;;;;;;;;;;;;;;;4996979;28;19941;-22
2022/06/04 01:31:38;;;;;;;;;;;;;;;;;;4997274;28;19909;-24
2022/06/04 01:34:04;;;;;;;;;;;;;;;;;;4997079;28;19921;-24
2022/06/04 01:36:32;;;;;;;;;;;;;;;;;;4997725;28;19914;-23
2022/06/04 01:38:58;;;;;;;;;;;;;;;;;;4997350;28;20307;-22
2022/06/04 01:41:24;;;;;;;;;;;;;;;;;;4997092;28;20004;-21
2022/06/04 01:43:50;;;;;;;;;;;;;;;;;;4996936;28;19920;-22
2022/06/04 01:46:16;;;;;;;;;;;;;;;;;;4997506;28;20347;-22
2022/06/04 01:48:42;;;;;;;;;;;;;;;;;;4997450;28;20012;-22
2022/06/04 01:51:08;;;;;;;;;;;;;;;;;;4997150;28;19910;-22
2022/06/04 01:53:34;;;;;;;;;;;;;;;;;;4996897;28;20321;-22
2022/06/04 01:56:00;;;;;;;;;;;;;;;;;;4996823;28;19917;-22
2022/06/04 01:58:26;;;;;;;;;;;;;;;;;;4996666;28;19924;-22
2022/06/04 02:00:52;;;;;;;;;;;;;;;;;;4996671;28;19910;-22
2022/06/04 02:03:18;;;;;;;;;;;;;;;;;;4996565;28;19924;-26
2022/06/04 02:05:44;;;;;;;;;;;;;;;;;;4996894;28;20000;-22
2022/06/04 02:08:11;;;;;;;;;;;;;;;;;;4997054;28;19914;-22
2022/06/04 02:10:38;;;;;;;;;;;;;;;;;;4996563;28;19913;-24
2022/06/04 02:13:04;;;;;;;;;;;;;;;;;;4996344;28;19933;-22
2022/06/04 02:15:30;;;;;;;;;;;;;;;;;;4996706;28;20304;-22
2022/06/04 02:17:57;;;;;;;;;;;;;;;;;;4996704;28;19910;-25
2022/06/04 02:20:23;;;;;;;;;;;;;;;;;;4996251;28;19972;-25
2022/06/04 02:22:50;;;;;;;;;;;;;;;;;;4996226;28;19917;-24
2022/06/04 02:25:16;;;;;;;;;;;;;;;;;;4996544;28;19914;-22
2022/06/04 02:27:43;;;;;;;;;;;;;;;;;;4996505;28;19909;-22
2022/06/04 02:30:09;;;;;;;;;;;;;;;;;;4996507;28;19996;-22
2022/06/04 02:32:35;;;;;;;;;;;;;;;;;;4996218;28;19956;-21
2022/06/04 02:35:01;;;;;;;;;;;;;;;;;;4996442;28;20333;-21
2022/06/04 02:37:27;;;;;;;;;;;;;;;;;;4995985;28;19913;-21
2022/06/04 02:39:53;;;;;;;;;;;;;;;;;;4996170;28;19909;-23
2022/06/04 02:42:19;;;;;;;;;;;;;;;;;;4995874;28;19937;-21
2022/06/04 02:44:45;;;;;;;;;;;;;;;;;;4995996;28;19914;-23
2022/06/04 02:47:11;;;;;;;;;;;;;;;;;;4995957;28;19925;-22
2022/06/04 02:49:38;;;;;;;;;;;;;;;;;;4995963;28;19968;-22
2022/06/04 02:52:04;;;;;;;;;;;;;;;;;;4996262;28;19925;-22
2022/06/04 02:54:30;;;;;;;;;;;;;;;;;;4995825;28;19921;-23
2022/06/04 02:56:56;;;;;;;;;;;;;;;;;;4995878;28;20348;-22
2022/06/04 02:59:22;;;;;;;;;;;;;;;;;;4994846;28;19976;-22
2022/06/04 03:01:48;;;;;;;;;;;;;;;;;;4996250;28;20336;-23
2022/06/04 03:04:14;;;;;;;;;;;;;;;;;;4995596;28;20320;-22
2022/06/04 03:06:41;;;;;;;;;;;;;;;;;;4994762;28;20337;-22
2022/06/04 03:09:07;;;;;;;;;;;;;;;;;;4995661;28;19969;-21
2022/06/04 03:11:33;;;;;;;;;;;;;;;;;;4995670;28;19917;-22
2022/06/04 03:13:59;;;;;;;;;;;;;;;;;;4995502;28;19983;-22
2022/06/04 03:16:25;;;;;;;;;;;;;;;;;;4995635;28;19910;-22
2022/06/04 03:18:51;;;;;;;;;;;;;;;;;;4995630;28;19921;-23
2022/06/04 03:21:17;;;;;;;;;;;;;;;;;;4995846;28;19910;-22
2022/06/04 03:23:43;;;;;;;;;;;;;;;;;;4995759;28;19964;-22
2022/06/04 03:26:09;;;;;;;;;;;;;;;;;;4995850;28;20336;-22
2022/06/04 03:28:35;;;;;;;;;;;;;;;;;;4995524;28;19918;-23
2022/06/04 03:31:01;;;;;;;;;;;;;;;;;;4996059;28;19909;-22
2022/06/04 03:33:27;;;;;;;;;;;;;;;;;;4995358;28;20320;-24
2022/06/04 03:35:53;;;;;;;;;;;;;;;;;;4995468;28;19910;-22
2022/06/04 03:38:19;;;;;;;;;;;;;;;;;;4995426;28;19985;-22
2022/06/04 03:40:45;;;;;;;;;;;;;;;;;;4995355;28;19960;-23
2022/06/04 03:43:11;;;;;;;;;;;;;;;;;;4995530;28;19921;-23
2022/06/04 03:45:37;;;;;;;;;;;;;;;;;;4995383;28;20000;-22
2022/06/04 03:48:03;;;;;;;;;;;;;;;;;;4995875;28;19921;-22
2022/06/04 03:50:29;;;;;;;;;;;;;;;;;;4995320;28;19909;-24
2022/06/04 03:52:55;;;;;;;;;;;;;;;;;;4997422;28;19918;-21
2022/06/04 03:55:21;;;;;;;;;;;;;;;;;;4998934;28;20056;-22
2022/06/04 03:57:52;;;;;;;;;;;;;;;;;;4999542;28;19921;-22
2022/06/04 04:00:18;;;;;;;;;;;;;;;;;;4998827;28;19996;-22
2022/06/04 04:02:44;;;;;;;;;;;;;;;;;;4998677;28;19925;-22
2022/06/04 04:05:10;;;;;;;;;;;;;;;;;;4997486;28;19921;-22
2022/06/04 04:07:36;;;;;;;;;;;;;;;;;;4998654;28;20349;-22
2022/06/04 04:10:02;;;;;;;;;;;;;;;;;;4997407;28;20368;-23
2022/06/04 04:12:28;;;;;;;;;;;;;;;;;;4998511;28;20206;-25
2022/06/04 04:14:54;;;;;;;;;;;;;;;;;;4998585;28;20305;-22
2022/06/04 04:17:22;;;;;;;;;;;;;;;;;;4998484;28;20353;-23
2022/06/04 04:19:48;;;;;;;;;;;;;;;;;;4998185;28;20404;-21
2022/06/04 04:22:14;;;;;;;;;;;;;;;;;;4998323;28;19910;-21
2022/06/04 04:24:40;;;;;;;;;;;;;;;;;;4998534;28;19914;-22
2022/06/04 04:27:06;;;;;;;;;;;;;;;;;;4998102;28;20460;-21
2022/06/04 04:29:32;;;;;;;;;;;;;;;;;;4998038;28;19922;-22
2022/06/04 04:31:58;;;;;;;;;;;;;;;;;;4997995;28;20261;-21
2022/06/04 04:34:24;;;;;;;;;;;;;;;;;;4998005;28;19910;-22
2022/06/04 04:36:50;;;;;;;;;;;;;;;;;;4998186;28;19914;-23
2022/06/04 04:39:16;;;;;;;;;;;;;;;;;;4998053;28;19920;-22
2022/06/04 04:41:42;;;;;;;;;;;;;;;;;;4997900;28;19913;-22
2022/06/04 04:44:08;;;;;;;;;;;;;;;;;;4998134;28;19910;-25
2022/06/04 04:46:34;;;;;;;;;;;;;;;;;;4997860;28;19936;-23
2022/06/04 04:49:00;;;;;;;;;;;;;;;;;;4998011;28;19913;-23
2022/06/04 04:51:26;;;;;;;;;;;;;;;;;;4997591;28;19997;-23
2022/06/04 04:53:52;;;;;;;;;;;;;;;;;;4997353;28;20008;-22
2022/06/04 04:56:18;;;;;;;;;;;;;;;;;;4997614;28;20009;-23
2022/06/04 04:58:44;;;;;;;;;;;;;;;;;;4997545;28;20005;-22
2022/06/04 05:01:10;;;;;;;;;;;;;;;;;;4998007;28;19941;-23
2022/06/04 05:03:36;;;;;;;;;;;;;;;;;;4996648;28;19918;-23
2022/06/04 05:06:02;;;;;;;;;;;;;;;;;;4997676;28;19933;-22
2022/06/04 05:08:28;;;;;;;;;;;;;;;;;;4997619;28;19989;-23
2022/06/04 05:10:54;;;;;;;;;;;;;;;;;;4997443;28;20273;-22
2022/06/04 05:13:20;;;;;;;;;;;;;;;;;;4997215;28;19964;-22
2022/06/04 05:15:46;;;;;;;;;;;;;;;;;;4997476;28;19910;-24
2022/06/04 05:18:12;;;;;;;;;;;;;;;;;;4997516;28;19978;-22
2022/06/04 05:20:41;;;;;;;;;;;;;;;;;;4997192;28;19913;-24
2022/06/04 05:23:07;;;;;;;;;;;;;;;;;;4997009;28;19917;-23
2022/06/04 05:25:32;;;;;;;;;;;;;;;;;;4997062;28;19915;-23
2022/06/04 05:27:59;;;;;;;;;;;;;;;;;;4997057;28;20225;-23
2022/06/04 05:30:25;;;;;;;;;;;;;;;;;;4997002;28;20005;-21
2022/06/04 05:32:51;;;;;;;;;;;;;;;;;;4996945;28;19975;-22
2022/06/04 05:35:16;;;;;;;;;;;;;;;;;;4997029;28;20281;-22
2022/06/04 05:37:42;;;;;;;;;;;;;;;;;;4996933;28;19910;-22
2022/06/04 05:40:08;;;;;;;;;;;;;;;;;;4996719;28;20399;-21
2022/06/04 05:42:35;;;;;;;;;;;;;;;;;;4996618;28;20004;-21
2022/06/04 05:45:01;;;;;;;;;;;;;;;;;;4996792;28;19921;-20
2022/06/04 05:47:27;;;;;;;;;;;;;;;;;;4996734;28;20305;-22
2022/06/04 05:49:53;;;;;;;;;;;;;;;;;;4997190;28;20000;-21
2022/06/04 05:52:20;;;;;;;;;;;;;;;;;;4996410;28;19918;-23
2022/06/04 05:54:46;;;;;;;;;;;;;;;;;;4996815;28;19937;-23
2022/06/04 05:57:12;;;;;;;;;;;;;;;;;;4996682;28;19961;-22
2022/06/04 05:59:38;;;;;;;;;;;;;;;;;;4996668;28;20320;-22
2022/06/04 06:02:04;;;;;;;;;;;;;;;;;;4996508;28;19914;-22
2022/06/04 06:04:31;;;;;;;;;;;;;;;;;;4996645;28;19929;-21
2022/06/04 06:06:58;;;;;;;;;;;;;;;;;;4996549;28;19914;-22
2022/06/04 06:09:24;;;;;;;;;;;;;;;;;;4996484;28;20330;-21
2022/06/04 06:11:50;;;;;;;;;;;;;;;;;;4996803;28;19997;-21
2022/06/04 06:14:16;;;;;;;;;;;;;;;;;;4996380;28;19913;-21
2022/06/04 06:16:43;;;;;;;;;;;;;;;;;;4994573;28;20379;-21
2022/06/04 06:19:09;;;;;;;;;;;;;;;;;;4995410;28;19914;-22
2022/06/04 06:21:35;;;;;;;;;;;;;;;;;;4995323;28;19965;-21
2022/06/04 06:24:01;;;;;;;;;;;;;;;;;;4995068;28;19918;-25
2022/06/04 06:26:27;;;;;;;;;;;;;;;;;;4995111;28;20007;-21
2022/06/04 06:28:53;;;;;;;;;;;;;;;;;;4996634;28;19980;-23
2022/06/04 06:31:19;;;;;;;;;;;;;;;;;;4996008;28;20344;-22
2022/06/04 06:33:45;;;;;;;;;;;;;;;;;;4995924;28;20348;-22
2022/06/04 06:36:11;;;;;;;;;;;;;;;;;;4995951;28;20359;-23
2022/06/04 06:38:37;;;;;;;;;;;;;;;;;;4996168;28;19913;-22
2022/06/04 06:41:03;;;;;;;;;;;;;;;;;;4995798;28;19914;-22
2022/06/04 06:43:36;;;;;;;;;;;;;;;;;;4995765;28;19917;-22
2022/06/04 06:46:02;;;;;;;;;;;;;;;;;;4995837;28;20044;-22
2022/06/04 06:48:28;;;;;;;;;;;;;;;;;;4995834;28;19914;-22
2022/06/04 06:50:54;;;;;;;;;;;;;;;;;;4995630;28;19914;-22
2022/06/04 06:53:20;;;;;;;;;;;;;;;;;;4994538;28;20260;-23
2022/06/04 06:55:46;;;;;;;;;;;;;;;;;;4995627;28;20246;-22
2022/06/04 06:58:12;;;;;;;;;;;;;;;;;;4995547;28;20014;-22
2022/06/04 07:00:38;;;;;;;;;;;;;;;;;;4995818;28;20305;-23
2022/06/04 07:03:04;;;;;;;;;;;;;;;;;;4995400;28;19910;-22
2022/06/04 07:05:30;;;;;;;;;;;;;;;;;;4995816;28;20353;-22
2022/06/04 07:07:56;;;;;;;;;;;;;;;;;;4995859;28;19924;-21
2022/06/04 07:10:22;;;;;;;;;;;;;;;;;;4995848;28;19996;-22
2022/06/04 07:12:48;;;;;;;;;;;;;;;;;;4994447;28;20320;-23
2022/06/04 07:15:14;;;;;;;;;;;;;;;;;;4995451;28;19993;-22
2022/06/04 07:17:40;;;;;;;;;;;;;;;;;;4995356;28;20028;-23
2022/06/04 07:20:06;;;;;;;;;;;;;;;;;;4995835;28;19922;-22
2022/06/04 07:22:32;;;;;;;;;;;;;;;;;;4995275;28;19925;-22
2022/06/04 07:24:59;;;;;;;;;;;;;;;;;;4995256;28;20009;-21
2022/06/04 07:27:25;;;;;;;;;;;;;;;;;;4997057;28;19917;-22
2022/06/04 07:29:51;;;;;;;;;;;;;;;;;;4999440;28;20400;-22
2022/06/04 07:32:17;;;;;;;;;;;;;;;;;;4999389;28;19941;-21
2022/06/04 07:34:43;;;;;;;;;;;;;;;;;;4999495;28;19913;-21
2022/06/04 07:37:09;;;;;;;;;;;;;;;;;;4998220;28;20280;-22
2022/06/04 07:39:35;;;;;;;;;;;;;;;;;;4999181;28;19910;-22
2022/06/04 07:42:01;;;;;;;;;;;;;;;;;;4999464;28;20277;-23
2022/06/04 07:44:27;;;;;;;;;;;;;;;;;;4998859;28;19917;-23
2022/06/04 07:46:53;;;;;;;;;;;;;;;;;;4998863;28;19945;-22
2022/06/04 07:49:20;;;;;;;;;;;;;;;;;;4998710;28;19949;-23
2022/06/04 07:51:46;;;;;;;;;;;;;;;;;;4998764;28;19910;-23
2022/06/04 07:54:12;;;;;;;;;;;;;;;;;;4998751;28;20025;-21
2022/06/04 07:56:38;;;;;;;;;;;;;;;;;;4998888;28;19918;-22
2022/06/04 07:59:04;;;;;;;;;;;;;;;;;;4998541;28;19975;-21
2022/06/04 08:01:30;;;;;;;;;;;;;;;;;;4998519;28;19920;-21
2022/06/04 08:03:56;;;;;;;;;;;;;;;;;;4997210;28;19918;-21
2022/06/04 08:06:22;;;;;;;;;;;;;;;;;;4998422;28;19910;-22
2022/06/04 08:08:48;;;;;;;;;;;;;;;;;;4998390;28;19913;-23
2022/06/04 08:11:32;;;;;;;;;;;;;;;;;;4997413;28;20011;-21
2022/06/04 08:13:58;;;;;;;;;;;;;;;;;;4998583;28;19926;-23
2022/06/04 08:16:24;;;;;;;;;;;;;;;;;;4997436;28;19910;-21
2022/06/04 08:18:50;;;;;;;;;;;;;;;;;;4998215;28;20396;-21
2022/06/04 08:21:16;;;;;;;;;;;;;;;;;;4998388;28;19909;-22
2022/06/04 08:23:44;;;;;;;;;;;;;;;;;;4998448;28;19913;-23
2022/06/04 08:26:10;;;;;;;;;;;;;;;;;;4999135;28;19914;-23
2022/06/04 08:28:36;;;;;;;;;;;;;;;;;;4998639;28;19993;-22
2022/06/04 08:31:02;;;;;;;;;;;;;;;;;;4998470;28;19959;-22
2022/06/04 08:33:28;;;;;;;;;;;;;;;;;;4998171;28;19953;-22
2022/06/04 08:35:54;;;;;;;;;;;;;;;;;;4998401;28;20273;-22
2022/06/04 08:38:20;;;;;;;;;;;;;;;;;;4997359;28;19913;-22
2022/06/04 08:40:46;;;;;;;;;;;;;;;;;;4998179;28;20020;-21
2022/06/04 08:43:13;;;;;;;;;;;;;;;;;;4997218;28;19910;-22
2022/06/04 08:45:39;;;;;;;;;;;;;;;;;;4998110;28;20008;-22
2022/06/04 08:48:04;;;;;;;;;;;;;;;;;;4998422;28;19953;-22
2022/06/04 08:50:31;;;;;;;;;;;;;;;;;;4997090;28;19914;-21
2022/06/04 08:52:57;;;;;;;;;;;;;;;;;;4998396;28;19964;-22
2022/06/04 08:58:07;;;;;;;;;;;;;;;;;;4998219;28;19986;-22
2022/06/04 09:00:33;;;;;;;;;;;;;;;;;;4997804;28;19914;-22
2022/06/04 09:02:59;;;;;;;;;;;;;;;;;;4997575;28;19918;-22
2022/06/04 09:05:25;;;;;;;;;;;;;;;;;;4997769;28;19953;-23
2022/06/04 09:07:53;;;;;;;;;;;;;;;;;;4997751;28;19924;-21
2022/06/04 09:10:18;;;;;;;;;;;;;;;;;;4997573;28;19999;-21
2022/06/04 09:12:45;;;;;;;;;;;;;;;;;;4997657;28;19977;-22
2022/06/04 09:15:12;;;;;;;;;;;;;;;;;;4996422;28;20293;-22
2022/06/04 09:17:38;;;;;;;;;;;;;;;;;;4997355;28;19909;-22
2022/06/04 09:20:04;;;;;;;;;;;;;;;;;;4997267;28;19921;-21
2022/06/04 09:22:30;;;;;;;;;;;;;;;;;;4997208;28;19913;-21
2022/06/04 09:24:56;;;;;;;;;;;;;;;;;;4997747;28;19914;-22
2022/06/04 09:27:22;;;;;;;;;;;;;;;;;;4997153;28;19972;-22
2022/06/04 09:29:48;;;;;;;;;;;;;;;;;;4997086;28;19920;-23
2022/06/04 09:32:14;;;;;;;;;;;;;;;;;;4997444;28;19918;-22
2022/06/04 09:34:40;;;;;;;;;;;;;;;;;;4997129;28;20349;-23
2022/06/04 09:37:07;;;;;;;;;;;;;;;;;;4997005;28;19910;-22
2022/06/04 09:39:33;;;;;;;;;;;;;;;;;;4997005;28;19914;-22
2022/06/04 09:41:59;;;;;;;;;;;;;;;;;;4996841;28;19917;-24
2022/06/04 09:44:25;;;;;;;;;;;;;;;;;;4995876;28;20364;-22
2022/06/04 09:46:51;;;;;;;;;;;;;;;;;;4996701;28;19963;-22
2022/06/04 09:49:17;;;;;;;;;;;;;;;;;;4996730;28;20008;-25
2022/06/04 09:51:43;;;;;;;;;;;;;;;;;;4997474;28;19916;-21
2022/06/04 09:54:09;;;;;;;;;;;;;;;;;;4996693;28;20353;-22
2022/06/04 09:56:37;;;;;;;;;;;;;;;;;;4996267;28;20296;-21
2022/06/04 09:59:03;;;;;;;;;;;;;;;;;;4995783;28;20249;-21
2022/06/04 10:01:29;;;;;;;;;;;;;;;;;;4995674;28;19916;-21
2022/06/04 10:03:55;;;;;;;;;;;;;;;;;;4996332;28;20309;-22
2022/06/04 10:06:21;;;;;;;;;;;;;;;;;;4996556;28;19976;-22
2022/06/04 10:11:31;;;;;;;;;;;;;;;;;;4996522;28;19917;-21
2022/06/04 10:13:58;;;;;;;;;;;;;;;;;;4996274;28;19922;-21
2022/06/04 10:16:24;;;;;;;;;;;;;;;;;;4996234;28;20336;-22
2022/06/04 10:18:50;;;;;;;;;;;;;;;;;;4996504;28;19928;-22
2022/06/04 10:21:16;;;;;;;;;;;;;;;;;;4996896;28;19988;-22
2022/06/04 10:23:42;;;;;;;;;;;;;;;;;;4996145;28;20000;-22
2022/06/04 10:26:08;;;;;;;;;;;;;;;;;;4996152;28;19992;-22
2022/06/04 10:28:34;;;;;;;;;;;;;;;;;;4996433;28;19913;-22
2022/06/04 10:31:02;;;;;;;;;;;;;;;;;;4996389;28;19955;-22
2022/06/04 10:33:28;;;;;;;;;;;;;;;;;;4995967;28;19917;-22
2022/06/04 10:35:54;;;;;;;;;;;;;;;;;;4995129;28;20059;-23
2022/06/04 10:38:22;;;;;;;;;;;;;;;;;;4996306;28;19917;-24
2022/06/04 10:40:49;;;;;;;;;;;;;;;;;;4996005;28;19909;-22
2022/06/04 10:43:14;;;;;;;;;;;;;;;;;;4995871;28;19913;-22
2022/06/04 10:45:41;;;;;;;;;;;;;;;;;;4995948;28;20238;-22
2022/06/04 10:48:07;;;;;;;;;;;;;;;;;;4996372;28;19918;-22
2022/06/04 10:51:25;;;;;;;;;;;;;;;;;;4995750;28;19925;-22
2022/06/04 10:53:18;;;;;;;;;;;;;;;;;;4995570;28;20353;-22
2022/06/04 10:55:44;;;;;;;;;;;;;;;;;;4996001;28;19917;-21
2022/06/04 10:58:10;;;;;;;;;;;;;;;;;;4995757;28;19925;-22
2022/06/04 11:00:36;;;;;;;;;;;;;;;;;;4995722;28;19925;-23
2022/06/04 11:03:03;;;;;;;;;;;;;;;;;;4994987;28;19911;-26
2022/06/04 11:05:29;;;;;;;;;;;;;;;;;;4996339;28;20037;-23
2022/06/04 11:07:55;;;;;;;;;;;;;;;;;;4995788;28;19965;-22
2022/06/04 11:10:21;;;;;;;;;;;;;;;;;;4995710;28;20222;-22
2022/06/04 11:12:47;;;;;;;;;;;;;;;;;;4995597;28;19969;-22
2022/06/04 11:15:13;;;;;;;;;;;;;;;;;;4996263;28;20305;-22
2022/06/04 11:17:39;;;;;;;;;;;;;;;;;;4995684;28;19938;-22
2022/06/04 11:20:05;;;;;;;;;;;;;;;;;;4994769;28;19957;-22
2022/06/04 11:22:31;;;;;;;;;;;;;;;;;;4995531;28;19938;-22
2022/06/04 11:24:57;;;;;;;;;;;;;;;;;;4995857;28;19956;-22
2022/06/04 11:27:23;;;;;;;;;;;;;;;;;;4994659;28;20419;-22
2022/06/04 11:29:49;;;;;;;;;;;;;;;;;;4995558;28;19913;-23
2022/06/04 11:32:15;;;;;;;;;;;;;;;;;;4995685;28;19909;-22
2022/06/04 11:34:41;;;;;;;;;;;;;;;;;;4995478;28;19921;-22
2022/06/04 11:37:07;;;;;;;;;;;;;;;;;;4995755;28;19921;-23
2022/06/04 11:39:33;;;;;;;;;;;;;;;;;;4995452;28;19943;-24
2022/06/04 11:41:59;;;;;;;;;;;;;;;;;;4995395;28;20230;-22
2022/06/04 11:44:25;;;;;;;;;;;;;;;;;;4994468;28;19914;-24
2022/06/04 11:46:51;;;;;;;;;;;;;;;;;;4995940;28;20364;-22
2022/06/04 11:49:17;;;;;;;;;;;;;;;;;;4995385;28;19914;-22
2022/06/04 11:51:43;;;;;;;;;;;;;;;;;;4994421;28;19984;-22
2022/06/04 11:54:09;;;;;;;;;;;;;;;;;;4995205;28;19969;-22
2022/06/04 11:56:35;;;;;;;;;;;;;;;;;;4995606;28;19910;-22
2022/06/04 11:59:01;;;;;;;;;;;;;;;;;;4995206;28;19914;-22
2022/06/04 12:01:27;;;;;;;;;;;;;;;;;;4995531;28;19921;-22
2022/06/04 12:03:53;;;;;;;;;;;;;;;;;;4994990;28;20373;-28
2022/06/04 12:06:19;;;;;;;;;;;;;;;;;;4995502;28;19941;-23
2022/06/04 12:08:45;;;;;;;;;;;;;;;;;;4995478;28;20005;-22
2022/06/04 12:11:12;;;;;;;;;;;;;;;;;;4994259;28;20385;-22
2022/06/04 12:13:38;;;;;;;;;;;;;;;;;;4997192;28;19924;-23
2022/06/04 12:16:04;;;;;;;;;;;;;;;;;;4999056;28;19914;-22
2022/06/04 12:18:30;;;;;;;;;;;;;;;;;;4998645;28;19926;-23
2022/06/04 12:26:26;;;;;;;;;;;;;;;;;;4998625;28;20419;-22
2022/06/04 12:28:53;;;;;;;;;;;;;;;;;;4998431;28;19924;-22
2022/06/04 12:31:19;;;;;;;;;;;;;;;;;;4998427;28;19914;-22
2022/06/04 12:33:45;;;;;;;;;;;;;;;;;;4998274;28;19967;-22
2022/06/04 12:36:11;;;;;;;;;;;;;;;;;;4998370;28;19996;-22
2022/06/04 12:38:38;;;;;;;;;;;;;;;;;;4998622;28;19914;-22
2022/06/04 12:41:04;;;;;;;;;;;;;;;;;;4998251;28;20353;-22
2022/06/04 12:43:30;;;;;;;;;;;;;;;;;;4998352;28;19913;-24
2022/06/04 12:45:56;;;;;;;;;;;;;;;;;;4998225;28;19917;-23
2022/06/04 12:48:22;;;;;;;;;;;;;;;;;;4998678;28;19953;-22
2022/06/04 12:50:48;;;;;;;;;;;;;;;;;;4997178;28;20384;-22
2022/06/04 12:53:14;;;;;;;;;;;;;;;;;;4998455;28;20020;-22
2022/06/04 12:55:41;;;;;;;;;;;;;;;;;;4998575;28;19949;-22
2022/06/04 12:58:08;;;;;;;;;;;;;;;;;;4998217;28;19914;-23
2022/06/04 13:00:34;;;;;;;;;;;;;;;;;;4998698;28;19914;-22
2022/06/04 13:03:01;;;;;;;;;;;;;;;;;;4998147;28;19967;-22
2022/06/04 13:05:27;;;;;;;;;;;;;;;;;;4998427;28;19918;-22
2022/06/04 13:07:53;;;;;;;;;;;;;;;;;;4998046;28;19921;-22
2022/06/04 13:10:19;;;;;;;;;;;;;;;;;;4997746;28;19924;-23
2022/06/04 13:12:45;;;;;;;;;;;;;;;;;;4997597;28;19922;-22
2022/06/04 13:15:11;;;;;;;;;;;;;;;;;;4997645;28;19914;-22
2022/06/04 13:17:37;;;;;;;;;;;;;;;;;;4997641;28;20341;-22
2022/06/04 13:20:03;;;;;;;;;;;;;;;;;;4997533;28;19938;-22
2022/06/04 13:22:29;;;;;;;;;;;;;;;;;;4997394;28;20354;-21
2022/06/04 13:24:55;;;;;;;;;;;;;;;;;;4996975;28;19914;-22
2022/06/04 13:27:21;;;;;;;;;;;;;;;;;;4997368;28;19921;-22
2022/06/04 13:29:47;;;;;;;;;;;;;;;;;;4997653;28;19920;-22
2022/06/04 13:32:13;;;;;;;;;;;;;;;;;;4997423;28;19960;-23
2022/06/04 13:34:39;;;;;;;;;;;;;;;;;;4997263;28;19964;-22
2022/06/04 13:37:05;;;;;;;;;;;;;;;;;;4997562;28;19922;-22
2022/06/04 13:39:31;;;;;;;;;;;;;;;;;;4997148;28;19925;-23
2022/06/04 13:42:09;;;;;;;;;;;;;;;;;;4996149;28;19910;-23
2022/06/04 13:44:35;;;;;;;;;;;;;;;;;;4997435;28;20348;-22
2022/06/04 13:47:01;;;;;;;;;;;;;;;;;;4997077;28;20264;-22
2022/06/04 13:49:27;;;;;;;;;;;;;;;;;;4997549;28;19916;-22
2022/06/04 13:51:53;;;;;;;;;;;;;;;;;;4996960;28;20304;-22
2022/06/04 13:54:19;;;;;;;;;;;;;;;;;;4997389;28;19926;-22
2022/06/04 13:56:45;;;;;;;;;;;;;;;;;;4996873;28;19918;-22
2022/06/04 13:59:11;;;;;;;;;;;;;;;;;;4997428;28;20236;-22
2022/06/04 14:01:37;;;;;;;;;;;;;;;;;;4997062;28;19914;-22
2022/06/04 14:06:49;;;;;;;;;;;;;;;;;;4996777;28;20001;-22
2022/06/04 14:09:15;;;;;;;;;;;;;;;;;;4996605;28;19914;-22
2022/06/04 14:11:41;;;;;;;;;;;;;;;;;;4996869;28;20336;-31
2022/06/04 14:14:07;;;;;;;;;;;;;;;;;;4996700;28;19972;-22
2022/06/04 14:16:33;;;;;;;;;;;;;;;;;;4996813;28;19952;-22
2022/06/04 14:18:59;;;;;;;;;;;;;;;;;;4996470;28;19956;-22
2022/06/04 14:21:25;;;;;;;;;;;;;;;;;;4996436;28;20306;-22
2022/06/04 14:23:51;;;;;;;;;;;;;;;;;;4996311;28;19937;-23
2022/06/04 14:26:17;;;;;;;;;;;;;;;;;;4996890;28;19910;-22
2022/06/04 14:28:43;;;;;;;;;;;;;;;;;;4996881;28;19913;-22
2022/06/04 14:31:09;;;;;;;;;;;;;;;;;;4996243;28;20004;-22
2022/06/04 14:33:35;;;;;;;;;;;;;;;;;;4996100;28;19918;-22
2022/06/04 14:36:02;;;;;;;;;;;;;;;;;;4995794;28;19910;-22
2022/06/04 14:38:28;;;;;;;;;;;;;;;;;;4996104;28;19918;-25
2022/06/04 14:40:54;;;;;;;;;;;;;;;;;;4996087;28;19921;-22
2022/06/04 14:43:20;;;;;;;;;;;;;;;;;;4996126;28;19971;-22
2022/06/04 14:45:46;;;;;;;;;;;;;;;;;;4995988;28;19947;-22
2022/06/04 14:48:12;;;;;;;;;;;;;;;;;;4996331;28;20297;-22
2022/06/04 14:50:38;;;;;;;;;;;;;;;;;;4995926;28;19913;-22
2022/06/04 14:53:04;;;;;;;;;;;;;;;;;;4995805;28;19942;-23
2022/06/04 14:55:30;;;;;;;;;;;;;;;;;;4995940;28;19918;-22
2022/06/04 14:57:56;;;;;;;;;;;;;;;;;;4995958;28;19914;-23
2022/06/04 15:00:25;;;;;;;;;;;;;;;;;;4995790;28;20349;-22
2022/06/04 15:02:51;;;;;;;;;;;;;;;;;;4995673;28;19909;-22
2022/06/04 15:05:17;;;;;;;;;;;;;;;;;;4995777;28;19937;-22
2022/06/04 15:07:44;;;;;;;;;;;;;;;;;;4995750;28;19913;-22
2022/06/04 15:10:10;;;;;;;;;;;;;;;;;;4995723;28;19924;-23
2022/06/04 15:12:36;;;;;;;;;;;;;;;;;;4995563;28;19965;-23
2022/06/04 15:15:02;;;;;;;;;;;;;;;;;;4996459;28;19910;-22
2022/06/04 15:17:28;;;;;;;;;;;;;;;;;;4995721;28;19929;-22
2022/06/04 15:19:55;;;;;;;;;;;;;;;;;;4995663;28;19925;-22
2022/06/04 15:22:21;;;;;;;;;;;;;;;;;;4995590;28;19940;-23
2022/06/04 15:24:47;;;;;;;;;;;;;;;;;;4995882;28;19914;-22
2022/06/04 15:27:13;;;;;;;;;;;;;;;;;;4995609;28;19914;-22
2022/06/04 15:35:08;;;;;;;;;;;;;;;;;;4995604;28;20404;-22
2022/06/04 15:37:34;;;;;;;;;;;;;;;;;;4995491;28;20345;-23
2022/06/04 15:40:00;;;;;;;;;;;;;;;;;;4996022;28;19989;-22
2022/06/04 15:42:26;;;;;;;;;;;;;;;;;;4995400;28;19954;-27
2022/06/04 15:44:52;;;;;;;;;;;;;;;;;;4995442;28;19910;-23
2022/06/04 15:47:18;;;;;;;;;;;;;;;;;;4995402;28;19913;-21
2022/06/04 15:55:24;;;;;;;;;;;;;;;;;;4999257;28;19925;-24
2022/06/04 15:57:50;;;;;;;;;;;;;;;;;;4999067;28;19918;-23
2022/06/04 16:00:16;;;;;;;;;;;;;;;;;;4999630;28;19917;-22
2022/06/04 16:02:42;;;;;;;;;;;;;;;;;;4998968;28;19945;-22
2022/06/04 16:05:08;;;;;;;;;;;;;;;;;;4998877;28;19918;-22
2022/06/04 16:07:34;;;;;;;;;;;;;;;;;;4999250;28;19909;-21
2022/06/04 16:10:00;;;;;;;;;;;;;;;;;;4998831;28;19914;-23
2022/06/04 16:12:34;;;;;;;;;;;;;;;;;;4999003;28;19957;-23
2022/06/04 16:15:00;;;;;;;;;;;;;;;;;;4998823;28;19918;-24
2022/06/04 16:17:26;;;;;;;;;;;;;;;;;;4998763;28;19920;-25
2022/06/04 16:19:52;;;;;;;;;;;;;;;;;;4998658;28;19909;-22
2022/06/04 16:22:18;;;;;;;;;;;;;;;;;;4998565;28;19914;-23
2022/06/04 16:24:44;;;;;;;;;;;;;;;;;;4998884;28;20004;-22
2022/06/04 16:27:11;;;;;;;;;;;;;;;;;;4997661;28;19924;-22
2022/06/04 16:29:37;;;;;;;;;;;;;;;;;;4998786;28;19924;-22
2022/06/04 16:32:03;;;;;;;;;;;;;;;;;;4997505;28;20064;-22
2022/06/04 16:34:29;;;;;;;;;;;;;;;;;;4998318;28;20381;-22
2022/06/04 16:36:58;;;;;;;;;;;;;;;;;;4998371;28;19914;-22
2022/06/04 16:39:24;;;;;;;;;;;;;;;;;;4998884;28;19922;-23
2022/06/04 16:41:53;;;;;;;;;;;;;;;;;;4998554;28;19914;-25
2022/06/04 16:44:19;;;;;;;;;;;;;;;;;;4998521;28;19925;-22
2022/06/04 16:46:45;;;;;;;;;;;;;;;;;;4998505;28;19925;-22
2022/06/04 16:51:56;;;;;;;;;;;;;;;;;;4998402;28;19960;-22
2022/06/04 16:54:22;;;;;;;;;;;;;;;;;;4997991;28;19918;-22
2022/06/04 16:56:48;;;;;;;;;;;;;;;;;;4998312;28;19910;-22
2022/06/04 16:59:16;;;;;;;;;;;;;;;;;;4997586;28;19918;-22
2022/06/04 17:01:42;;;;;;;;;;;;;;;;;;4997818;28;19914;-22
2022/06/04 17:04:08;;;;;;;;;;;;;;;;;;4997585;28;19925;-22
2022/06/04 17:06:34;;;;;;;;;;;;;;;;;;4997851;28;19913;-22
2022/06/04 17:09:01;;;;;;;;;;;;;;;;;;4997764;28;20345;-23
2022/06/04 17:11:27;;;;;;;;;;;;;;;;;;4997708;28;19914;-22